createdAt,value
2023-01-12T01:39:36.676Z,25.05
2023-01-12T01:59:50.653Z,11.00
2023-01-12T02:41:10.179Z,17.08
2023-01-12T02:43:38.657Z,12.45
2023-01-12T02:54:43.188Z,10.88
2023-01-12T04:04:50.461Z,9.30
2023-01-12T04:40:38.832Z,13.88
2023-01-12T04:43:17.872Z,20.17
2023-01-12T04:46:44.901Z,9.75
2023-01-12T04:49:37.392Z,13.60
2023-01-12T04:52:14.778Z,14.95
2023-01-12T04:55:32.547Z,8.77
2023-01-12T06:21:49.895Z,10.10
2023-01-12T06:24:17.070Z,16.98
2023-01-12T06:26:45.240Z,8.32
2023-01-12T06:59:30.128Z,12.05
2023-01-12T07:01:57.354Z,13.27
2023-01-12T07:04:24.743Z,11.38
2023-01-12T07:06:55.260Z,9.35
2023-01-12T07:09:22.436Z,12.48
2023-01-12T07:11:49.792Z,15.57
2023-01-12T07:14:17.046Z,10.60
2023-01-12T07:16:44.129Z,10.98
2023-01-12T07:19:11.339Z,11.65
2023-01-12T07:21:38.448Z,12.60
2023-01-12T07:24:05.831Z,7.82
2023-01-12T07:26:33.008Z,13.20
2023-01-12T07:29:00.177Z,9.10
2023-01-12T07:31:27.608Z,9.07
2023-01-12T07:33:54.714Z,10.90
2023-01-12T07:36:22.525Z,16.23
2023-01-12T07:38:49.576Z,11.55
2023-01-12T07:41:35.461Z,9.93
2023-01-12T07:44:02.748Z,9.98
2023-01-12T07:46:30.140Z,13.68
2023-01-12T07:48:57.256Z,8.93
2023-01-12T07:51:24.372Z,9.93
2023-01-12T07:53:51.490Z,7.90
2023-01-12T07:56:19.148Z,18.42
2023-01-12T07:58:49.532Z,12.65
2023-01-12T08:01:16.944Z,12.88
2023-01-12T08:03:44.190Z,10.20
2023-01-12T08:06:11.389Z,10.32
2023-01-12T08:08:38.502Z,11.38
2023-01-12T08:11:07.907Z,10.70
2023-01-12T08:13:35.474Z,11.63
2023-01-12T08:16:08.091Z,10.07
2023-01-12T08:18:50.097Z,8.82
2023-01-12T08:21:20.894Z,11.40
2023-01-12T08:23:51.021Z,12.73
2023-01-12T08:26:23.850Z,7.88
2023-01-12T08:28:58.199Z,15.82
2023-01-12T08:31:26.237Z,8.32
2023-01-12T08:33:54.528Z,10.18
2023-01-12T08:36:22.332Z,10.07
2023-01-12T08:38:49.500Z,10.23
2023-01-12T08:41:37.389Z,15.50
2023-01-12T08:44:10.951Z,11.40
2023-01-12T08:46:40.470Z,7.75
2023-01-12T08:49:09.705Z,8.13
2023-01-12T08:51:39.382Z,9.18
2023-01-12T08:54:11.344Z,12.52
2023-01-12T08:56:38.586Z,8.52
2023-01-12T08:59:05.862Z,10.45
2023-01-12T09:01:33.570Z,9.65
2023-01-12T09:04:00.977Z,10.85
2023-01-12T09:06:30.828Z,7.43
2023-01-12T09:08:59.855Z,13.55
2023-01-12T09:11:28.989Z,10.45
2023-01-12T09:13:58.443Z,8.43
2023-01-12T09:16:27.164Z,11.43
2023-01-12T09:18:54.383Z,7.50
2023-01-12T09:21:23.068Z,8.65
2023-01-12T09:23:50.680Z,7.78
2023-01-12T09:26:22.487Z,14.00
2023-01-12T09:28:51.349Z,8.00
2023-01-12T09:31:20.799Z,8.65
2023-01-12T09:33:48.554Z,10.40
2023-01-12T09:36:26.841Z,6.97
2023-01-12T09:38:54.240Z,10.02
2023-01-12T09:41:43.292Z,6.25
2023-01-12T09:44:44.086Z,11.23
2023-01-12T09:47:32.768Z,9.35
2023-01-12T09:50:11.296Z,7.60
2023-01-12T09:52:44.799Z,8.20
2023-01-12T09:55:21.158Z,7.65
2023-01-12T09:57:57.800Z,9.95
2023-01-12T10:00:25.147Z,6.78
2023-01-12T10:03:14.715Z,8.05
2023-01-12T10:05:49.560Z,6.68
2023-01-12T10:08:54.209Z,11.87
2023-01-12T10:11:39.447Z,8.80
2023-01-12T10:14:32.678Z,4.77
2023-01-12T10:17:08.036Z,9.13
2023-01-12T10:19:51.159Z,6.68
2023-01-12T10:22:37.320Z,7.60
2023-01-12T10:25:26.072Z,7.95
2023-01-12T10:27:56.769Z,6.93
2023-01-12T10:30:32.572Z,14.27
2023-01-12T10:33:31.819Z,14.70
2023-01-12T10:35:59.624Z,12.02
2023-01-12T10:38:31.284Z,6.50
2023-01-12T10:41:17.070Z,9.55
2023-01-12T10:43:46.816Z,10.95
2023-01-12T10:46:17.639Z,8.32
2023-01-12T10:48:46.993Z,10.57
2023-01-12T10:51:22.380Z,9.50
2023-01-12T10:53:54.056Z,9.30
2023-01-12T10:56:36.547Z,8.82
2023-01-12T10:59:14.801Z,10.18
2023-01-12T11:01:53.337Z,11.80
2023-01-12T11:04:22.827Z,10.27
2023-01-12T11:07:15.609Z,11.68
2023-01-12T11:09:43.815Z,11.43
2023-01-12T11:12:33.701Z,9.50
2023-01-12T11:15:15.416Z,11.07
2023-01-12T11:17:58.690Z,11.45
2023-01-12T11:20:28.908Z,9.68
2023-01-12T11:23:00.552Z,9.43
2023-01-12T11:25:32.258Z,8.32
2023-01-12T11:28:22.626Z,10.68
2023-01-12T11:31:06.142Z,8.93
2023-01-12T11:33:42.791Z,7.35
2023-01-12T11:36:12.288Z,11.10
2023-01-12T11:38:41.552Z,8.40
2023-01-12T11:41:13.657Z,8.25
2023-01-12T11:43:55.693Z,11.27
2023-01-12T11:46:29.109Z,7.55
2023-01-12T11:49:37.560Z,7.55
2023-01-12T11:52:04.855Z,7.85
2023-01-12T11:54:32.092Z,5.50
2023-01-12T11:57:11.074Z,7.28
2023-01-12T12:00:15.524Z,7.63
2023-01-12T12:03:22.890Z,5.15
2023-01-12T12:06:29.260Z,8.45
2023-01-12T12:09:22.005Z,7.50
2023-01-12T12:12:12.497Z,5.70
2023-01-12T12:14:50.317Z,4.90
2023-01-12T12:17:42.381Z,5.13
2023-01-12T12:20:36.245Z,10.02
2023-01-12T12:23:25.416Z,3.95
2023-01-12T12:25:52.473Z,6.78
2023-01-12T12:28:44.343Z,6.50
2023-01-12T12:31:21.260Z,6.35
2023-01-12T12:34:15.385Z,4.15
2023-01-12T12:37:19.708Z,5.80
2023-01-12T12:40:14.475Z,7.10
2023-01-12T12:43:35.905Z,8.00
2023-01-12T12:46:06.846Z,2.63
2023-01-12T12:48:44.673Z,6.00
2023-01-12T12:51:13.100Z,6.78
2023-01-12T12:53:42.002Z,4.03
2023-01-12T12:56:14.366Z,3.53
2023-01-12T12:58:43.509Z,2.80
2023-01-12T13:01:19.732Z,4.55
2023-01-12T13:04:00.516Z,3.60
2023-01-12T13:06:39.020Z,4.22
2023-01-12T13:09:09.271Z,3.22
2023-01-12T13:12:00.497Z,3.40
2023-01-12T13:15:15.058Z,4.55
2023-01-12T13:17:44.630Z,5.05
2023-01-12T13:20:24.734Z,3.65
2023-01-12T13:22:52.375Z,2.92
2023-01-12T13:25:19.413Z,1.83
2023-01-12T13:28:09.611Z,2.38
2023-01-12T13:30:40.308Z,3.03
2023-01-12T13:33:29.713Z,3.40
2023-01-12T13:36:02.172Z,2.22
2023-01-12T13:38:43.718Z,4.13
2023-01-12T13:41:13.591Z,1.92
2023-01-12T13:43:50.025Z,2.25
2023-01-12T13:46:28.095Z,2.97
2023-01-12T13:48:55.912Z,3.53
2023-01-12T13:51:29.579Z,1.77
2023-01-12T13:54:14.884Z,2.88
2023-01-12T13:56:42.961Z,3.45
2023-01-12T13:59:19.236Z,5.03
2023-01-12T14:01:48.047Z,2.15
2023-01-12T14:04:17.382Z,3.75
2023-01-12T14:07:10.507Z,1.25
2023-01-12T14:09:57.499Z,2.60
2023-01-12T14:12:37.564Z,1.77
2023-01-12T14:15:36.806Z,4.55
2023-01-12T14:18:15.832Z,2.33
2023-01-12T14:20:54.529Z,2.70
2023-01-12T14:23:27.410Z,3.75
2023-01-12T14:26:13.799Z,1.17
2023-01-12T14:28:46.158Z,2.17
2023-01-12T14:31:27.457Z,1.45
2023-01-12T14:33:57.011Z,1.80
2023-01-12T14:36:30.009Z,1.88
2023-01-12T14:38:58.649Z,1.17
2023-01-12T14:51:17.180Z,2.53
2023-01-12T14:53:46.485Z,4.00
2023-01-12T14:56:23.269Z,1.83
2023-01-12T15:25:36.597Z,1.15
2023-01-12T17:23:48.446Z,1.25
